Hartsfield Jackson Atlanta International Airport
KATL : now visible

Airfield :











YOU CAN JOIN US ON...

 
LOGIN :

Register | Disclaimer

   EN    FR    IT 

 









Legend :    VFR   Marginal VFR   IFR   Intensive IFR   Very Intensive IFR
Visi :
Ceiling :
>= 8 km
>= 3000ft
5 to 8 km
1000 to 3000 ft
1500m to 5 km
500 to 1000 ft
800 to 1500m
200 to 500 ft
< 800m
< 200 ft
Symbols :   Thunderstorms  Fog  Heavy snow  Heavy precipitations  Wind > 20 kt






- Airport Elevation : 1026 ft
- IATA code : ATL


KATL - Hartsfield Jackson Atlanta International

CURRENT METAR :
  • 190152Z 24003KT 8SM -RA SCT055 BKN070 BKN090 OVC250 24/23 A3010 RMK AO2 SLP183 P0002 T02440228

EXPIRED METARs :
  • 190052Z 00000KT 10SM -RA FEW030 SCT090 BKN120 BKN200 OVC250 25/22 A3010 RMK AO2 SLP184 P0003 T02500222
  • 182352Z 10004KT 10SM -RA FEW030 SCT080 BKN110 BKN150 OVC250 26/21 A3008 RMK AO2 RAE10B45 SLP178 P0000 60000 T02560211 10289 20256 53007
  • 182252Z 09006KT 10SM -RA FEW030 SCT060 SCT080 BKN140 BKN250 26/21 A3007 RMK AO2 RAB46 SLP173 P0000 T02610206

TAF KATL
Valid from the 19 at 00:00 until the 20 at 06:00 UTC


182329Z 1900/2006 09007KT P6SM VCSH FEW030 SCT060 BKN090
FM190300 08005KT P6SM SCT030 BKN090
FM190700 07004KT P6SM SCT010 BKN025
FM191100 07004KT 6SM BR OVC008
FM191600 09007KT P6SM VCSH OVC012
FM192000 09007KT P6SM -SHRA BKN025
PROB30 1920/1924 4SM TSRA BR OVC015CB
KZTL FIR / North America



MET'MAP, your aeronautical weather chart ! - Copyright ORBIFLY December 2007 - Disclaimer

ORBIFLY MET'MAP TEAM :

Programming & Development : Alexandra Zaïnal
Concept & original design : Baudouin d'Aumeries
Assistance for programming : Marc-Olivier Méhu
Technical & hardware support : Manuel Goepfert

Contact : metmap@orbifly.com




SOURCES & CREDITS :

   NOAA       Earth
Advisory